createdAt,value
2022-12-29T00:02:10.899Z,1.4
2022-12-29T00:05:12.838Z,1.8
2022-12-29T00:08:14.773Z,1.6
2022-12-29T00:11:16.720Z,1.8
2022-12-29T00:14:22.842Z,1.7
2022-12-29T00:17:20.627Z,1.6
2022-12-29T00:20:22.581Z,1.8
2022-12-29T00:23:24.554Z,1.7
2022-12-29T00:26:26.499Z,1.7
2022-12-29T00:29:28.464Z,1.8
2022-12-29T00:32:30.391Z,1.6
2022-12-29T00:35:32.371Z,1.8
2022-12-29T00:38:34.301Z,1.6
2022-12-29T00:41:36.261Z,1.5
2022-12-29T00:44:38.219Z,1.7
2022-12-29T00:47:40.173Z,1.5
2022-12-29T00:50:42.120Z,1.9
2022-12-29T00:53:44.086Z,1.8
2022-12-29T00:56:46.031Z,1.6
2022-12-29T00:59:48.012Z,1.6
2022-12-29T01:02:50.107Z,1.7
2022-12-29T01:05:51.892Z,1.6
2022-12-29T01:08:53.855Z,1.6
2022-12-29T01:11:55.814Z,1.6
2022-12-29T01:14:57.766Z,1.8
2022-12-29T01:17:59.716Z,1.4
2022-12-29T01:21:01.682Z,1.5
2022-12-29T01:24:03.644Z,1.4
2022-12-29T01:27:05.596Z,1.3
2022-12-29T01:30:07.578Z,1.4
2022-12-29T01:33:09.520Z,1.3
2022-12-29T01:36:11.492Z,1.3
2022-12-29T01:39:13.443Z,1.4
2022-12-29T01:42:15.417Z,1.4
2022-12-29T01:45:17.385Z,1.3
2022-12-29T01:48:19.342Z,1.3
2022-12-29T01:51:21.305Z,1.2
2022-12-29T01:54:23.280Z,1.4
2022-12-29T01:57:25.281Z,1.2
2022-12-29T02:00:27.208Z,1.1
2022-12-29T02:03:29.196Z,1.2
2022-12-29T02:06:31.147Z,1.3
2022-12-29T02:09:33.108Z,1
2022-12-29T02:12:35.080Z,1.2
2022-12-29T02:15:37.053Z,1
2022-12-29T02:18:39.026Z,1.1
2022-12-29T02:21:41.009Z,1.4
2022-12-29T02:24:42.947Z,1.2
2022-12-29T02:27:44.919Z,1.1
2022-12-29T02:30:46.885Z,1
2022-12-29T02:33:48.846Z,1.2
2022-12-29T02:36:50.805Z,1
2022-12-29T02:39:52.745Z,1.1
2022-12-29T02:42:54.710Z,0.9
2022-12-29T02:45:56.731Z,1
2022-12-29T02:48:58.645Z,1.1
2022-12-29T02:52:00.615Z,0.9
2022-12-29T02:55:02.572Z,0.9
2022-12-29T02:58:04.550Z,0.9
2022-12-29T03:01:06.577Z,0.8
2022-12-29T03:04:08.483Z,0.8
2022-12-29T03:07:10.446Z,1
2022-12-29T03:10:12.427Z,1
2022-12-29T03:13:14.391Z,0.7
2022-12-29T03:16:16.362Z,0.9
2022-12-29T03:19:18.330Z,0.9
2022-12-29T03:22:20.297Z,0.8
2022-12-29T03:25:22.252Z,0.9
2022-12-29T03:28:24.212Z,0.7
2022-12-29T03:31:26.251Z,0.6
2022-12-29T03:34:28.188Z,0.7
2022-12-29T03:37:30.139Z,0.9
2022-12-29T03:40:32.114Z,1
2022-12-29T03:43:34.071Z,0.9
2022-12-29T03:46:36.100Z,1.1
2022-12-29T03:49:38.067Z,1.2
2022-12-29T03:52:39.984Z,0.8
2022-12-29T03:55:41.937Z,0.9
2022-12-29T03:58:43.897Z,1
2022-12-29T04:01:45.953Z,1.1
2022-12-29T04:04:47.831Z,1.1
2022-12-29T04:07:49.790Z,1.1
2022-12-29T04:10:51.766Z,1
2022-12-29T04:13:53.725Z,1.6
2022-12-29T04:16:55.724Z,1.1
2022-12-29T04:19:57.664Z,0.7
2022-12-29T04:22:59.626Z,1.2
2022-12-29T04:26:01.585Z,1
2022-12-29T04:29:03.556Z,0.8
2022-12-29T04:32:05.521Z,1.2
2022-12-29T04:35:07.537Z,1
2022-12-29T04:38:09.461Z,1.1
2022-12-29T04:41:11.415Z,1.1
2022-12-29T04:44:13.400Z,1.2
2022-12-29T04:47:15.345Z,1.1
2022-12-29T04:50:17.300Z,1.1
2022-12-29T04:53:19.259Z,1.1
2022-12-29T04:56:21.202Z,1.3
2022-12-29T04:59:23.157Z,1.1
2022-12-29T05:02:25.383Z,1.1
2022-12-29T05:05:27.089Z,1.1
2022-12-29T05:08:29.058Z,1.1
2022-12-29T05:11:30.999Z,1.1
2022-12-29T05:14:32.975Z,0.9
2022-12-29T05:17:34.951Z,1.3
2022-12-29T05:20:36.923Z,1
2022-12-29T05:23:38.860Z,1
2022-12-29T05:26:40.820Z,1
2022-12-29T05:29:42.785Z,1
2022-12-29T05:32:44.759Z,1
2022-12-29T05:35:46.736Z,1.6
2022-12-29T05:38:48.687Z,1.1
2022-12-29T05:41:50.671Z,1.1
2022-12-29T05:44:52.629Z,1.4
2022-12-29T05:47:54.597Z,1.1
2022-12-29T05:50:56.569Z,0.9
2022-12-29T05:53:58.521Z,1.1
2022-12-29T05:57:00.501Z,1
2022-12-29T06:00:02.458Z,1
2022-12-29T06:03:04.513Z,1.2
2022-12-29T06:06:06.387Z,0.9
2022-12-29T06:09:08.358Z,0.8
2022-12-29T06:12:10.326Z,0.9
2022-12-29T06:15:12.325Z,1.1
2022-12-29T06:18:19.511Z,0.9
2022-12-29T06:21:16.245Z,1
2022-12-29T06:24:18.192Z,1.4
2022-12-29T06:27:20.168Z,1.1
2022-12-29T06:30:22.126Z,1.1
2022-12-29T06:33:24.112Z,1
2022-12-29T06:36:26.065Z,0.9
2022-12-29T06:39:28.032Z,0.9
2022-12-29T06:42:30.019Z,1.1
2022-12-29T06:45:32.068Z,1.1
2022-12-29T06:48:34.002Z,1.3
2022-12-29T06:51:35.929Z,1
2022-12-29T06:54:37.891Z,1.1
2022-12-29T06:57:39.870Z,1.3
2022-12-29T07:00:41.842Z,1.1
2022-12-29T07:03:43.795Z,1.4
2022-12-29T07:06:45.751Z,1.4
2022-12-29T07:09:47.709Z,1.2
2022-12-29T07:12:49.675Z,1.7
2022-12-29T07:15:51.640Z,1.2
2022-12-29T07:18:53.602Z,1.2
2022-12-29T07:21:55.555Z,1.3
2022-12-29T07:24:57.516Z,1.5
2022-12-29T07:27:59.504Z,1.3
2022-12-29T07:31:01.475Z,1.4
2022-12-29T07:34:03.436Z,1.3
2022-12-29T07:37:05.382Z,1.4
2022-12-29T07:40:07.335Z,1.5
2022-12-29T07:43:09.343Z,1.5
2022-12-29T07:46:17.542Z,1.2
2022-12-29T07:49:13.264Z,1.6
2022-12-29T07:52:15.227Z,1.4
2022-12-29T07:55:17.186Z,1.5
2022-12-29T07:58:19.147Z,1.3
2022-12-29T08:01:21.221Z,1.7
2022-12-29T08:04:23.125Z,1.8
2022-12-29T08:07:25.042Z,1.4
2022-12-29T08:10:27.198Z,1.6
2022-12-29T08:13:28.991Z,1.6
2022-12-29T08:16:30.991Z,1.9
2022-12-29T08:19:32.904Z,1.5
2022-12-29T08:22:34.886Z,1.9
2022-12-29T08:25:37.114Z,2.1
2022-12-29T08:28:38.974Z,1.7
2022-12-29T08:31:40.806Z,1.5
2022-12-29T08:34:42.775Z,1.5
2022-12-29T08:37:47.745Z,1.6
2022-12-29T08:40:49.700Z,1.8
2022-12-29T08:43:51.668Z,1.5
2022-12-29T08:46:53.682Z,1.5
2022-12-29T08:49:55.585Z,1.5
2022-12-29T08:52:57.536Z,2
2022-12-29T08:56:03.930Z,1.8
2022-12-29T08:59:01.526Z,1.9
2022-12-29T09:02:03.589Z,2.1
2022-12-29T09:05:05.538Z,2
2022-12-29T09:08:07.408Z,1.9
2022-12-29T09:11:09.367Z,2.2
2022-12-29T09:14:13.863Z,1.9
2022-12-29T09:17:13.414Z,2.4
2022-12-29T09:20:15.460Z,2.1
2022-12-29T09:23:17.386Z,2.5
2022-12-29T09:26:19.358Z,2.4
2022-12-29T09:29:21.335Z,2.2
2022-12-29T09:32:23.716Z,2.3
2022-12-29T09:35:25.253Z,2.1
2022-12-29T09:38:27.332Z,2.7
2022-12-29T09:41:29.256Z,2.4
2022-12-29T09:44:31.230Z,2.2
2022-12-29T09:47:33.170Z,2.6
2022-12-29T09:50:35.157Z,2.9
2022-12-29T09:53:37.142Z,2.8
2022-12-29T09:56:39.239Z,2.6
2022-12-29T09:59:41.037Z,2.2
2022-12-29T10:02:43.124Z,2.7
2022-12-29T10:05:44.994Z,3.1
2022-12-29T10:08:46.929Z,2.9
2022-12-29T10:11:48.896Z,2.3
2022-12-29T10:14:50.870Z,2
2022-12-29T10:17:52.831Z,1.7
2022-12-29T10:20:54.798Z,1.5
2022-12-29T10:23:56.751Z,1.4
2022-12-29T10:26:58.715Z,1.4
2022-12-29T10:30:00.703Z,1.8
2022-12-29T10:33:02.645Z,1.2
2022-12-29T10:36:04.609Z,1.1
2022-12-29T10:39:06.585Z,0.9
2022-12-29T10:42:08.529Z,1
2022-12-29T10:45:10.691Z,0.9
2022-12-29T10:48:12.458Z,1
2022-12-29T10:51:14.419Z,0.8
2022-12-29T10:54:16.379Z,0.8
2022-12-29T10:57:18.346Z,0.9
2022-12-29T11:00:20.324Z,0.9
2022-12-29T11:03:22.445Z,0.8
2022-12-29T11:06:24.245Z,0.9
2022-12-29T11:09:41.347Z,1
2022-12-29T11:12:28.201Z,1
2022-12-29T11:15:30.155Z,1
2022-12-29T11:18:32.140Z,0.9
2022-12-29T11:21:34.075Z,0.7
2022-12-29T11:24:36.019Z,0.9
2022-12-29T11:27:37.980Z,0.8
2022-12-29T11:30:39.942Z,0.7
2022-12-29T11:33:41.927Z,0.8
2022-12-29T11:36:43.870Z,0.6
2022-12-29T11:39:45.822Z,0.8
2022-12-29T11:42:47.801Z,0.6
2022-12-29T11:45:49.760Z,0.8
2022-12-29T11:48:51.738Z,0.7
2022-12-29T11:51:53.695Z,0.7
2022-12-29T11:54:55.654Z,0.8
2022-12-29T11:57:57.649Z,0.7
2022-12-29T12:00:59.616Z,0.8
2022-12-29T12:04:01.570Z,0.8
2022-12-29T12:07:03.540Z,0.7
2022-12-29T12:10:07.968Z,0.9
2022-12-29T12:13:07.445Z,0.8
2022-12-29T12:16:09.442Z,0.5
2022-12-29T12:19:11.366Z,0.5
2022-12-29T12:22:13.328Z,0.6
2022-12-29T12:25:15.284Z,0.7
2022-12-29T12:28:17.242Z,0.8
2022-12-29T12:31:19.253Z,0.6
2022-12-29T12:34:21.172Z,0.6
2022-12-29T12:37:23.162Z,0.7
2022-12-29T12:40:25.081Z,0.8
2022-12-29T12:43:27.064Z,0.7
2022-12-29T12:46:29.068Z,0.7
2022-12-29T12:49:30.996Z,0.7
2022-12-29T12:52:32.991Z,0.5
2022-12-29T12:55:34.920Z,0.7
2022-12-29T12:58:36.895Z,0.9
2022-12-29T13:01:39.021Z,0.8
2022-12-29T13:04:40.832Z,0.9
2022-12-29T13:07:42.777Z,0.9
2022-12-29T13:10:48.395Z,0.7
2022-12-29T13:13:46.719Z,0.8
2022-12-29T13:16:48.675Z,0.8
2022-12-29T13:19:50.639Z,0.6
2022-12-29T13:22:52.583Z,0.8
2022-12-29T13:25:54.567Z,0.6
2022-12-29T13:28:56.517Z,0.7
2022-12-29T13:31:58.486Z,0.8
2022-12-29T13:35:00.450Z,0.8
2022-12-29T13:38:02.426Z,0.7
2022-12-29T13:41:04.360Z,0.7
2022-12-29T13:44:06.320Z,0.8
2022-12-29T13:47:08.276Z,0.8
2022-12-29T13:50:10.249Z,0.8
2022-12-29T13:53:12.355Z,0.8
2022-12-29T13:56:14.183Z,0.6
2022-12-29T13:59:16.142Z,1.1
2022-12-29T14:02:18.261Z,0.9
2022-12-29T14:05:20.116Z,1
2022-12-29T14:08:22.041Z,0.8
2022-12-29T14:11:24.033Z,0.9
2022-12-29T14:14:25.978Z,0.7
2022-12-29T14:17:27.943Z,0.9
2022-12-29T14:20:29.909Z,0.9
2022-12-29T14:23:31.881Z,1
2022-12-29T14:26:33.875Z,1.1
2022-12-29T14:29:35.798Z,1.1
2022-12-29T14:32:37.781Z,0.9
2022-12-29T14:35:39.743Z,1.2
2022-12-29T14:38:41.704Z,0.9
2022-12-29T14:41:43.664Z,1.1
2022-12-29T14:44:45.650Z,0.9
2022-12-29T14:47:47.613Z,1.1
2022-12-29T14:50:49.585Z,0.9
2022-12-29T14:53:51.580Z,1
2022-12-29T14:56:53.499Z,1.2
2022-12-29T14:59:55.478Z,0.8
2022-12-29T15:02:57.539Z,0.8
2022-12-29T15:05:59.723Z,0.8
2022-12-29T15:09:01.364Z,1
2022-12-29T15:12:03.341Z,1.1
2022-12-29T15:15:05.348Z,1.1
2022-12-29T15:18:07.284Z,0.8
2022-12-29T15:21:09.245Z,1
2022-12-29T15:24:11.211Z,0.8
2022-12-29T15:27:13.199Z,1.2
2022-12-29T15:30:17.965Z,1
2022-12-29T15:33:17.120Z,0.8
2022-12-29T15:36:19.075Z,1.2
2022-12-29T15:39:21.054Z,0.9
2022-12-29T15:42:23.008Z,1
2022-12-29T15:45:24.989Z,1.1
2022-12-29T15:48:26.946Z,0.8
2022-12-29T15:51:28.913Z,0.9
2022-12-29T15:54:30.892Z,1
2022-12-29T15:57:32.836Z,0.9
2022-12-29T16:00:34.806Z,0.7
2022-12-29T16:03:36.782Z,0.8
2022-12-29T16:06:38.761Z,0.9
2022-12-29T16:09:40.707Z,1.1
2022-12-29T16:12:42.664Z,0.8
2022-12-29T16:15:44.652Z,0.9
2022-12-29T16:18:49.355Z,0.8
2022-12-29T16:21:48.582Z,1
2022-12-29T16:24:50.534Z,1
2022-12-29T16:27:52.502Z,0.8
2022-12-29T16:30:54.478Z,0.7
2022-12-29T16:33:56.461Z,0.9
2022-12-29T16:36:58.426Z,0.7
2022-12-29T16:40:00.521Z,0.9
2022-12-29T16:43:02.561Z,1.1
2022-12-29T16:46:04.525Z,0.8
2022-12-29T16:49:06.481Z,1
2022-12-29T16:52:08.465Z,0.9
2022-12-29T16:55:10.438Z,1
2022-12-29T16:58:12.548Z,0.9
2022-12-29T17:01:14.404Z,0.9
2022-12-29T17:04:16.347Z,1.3
2022-12-29T17:07:18.509Z,1
2022-12-29T17:10:20.287Z,1.1
2022-12-29T17:13:22.234Z,0.7
2022-12-29T17:16:24.261Z,0.8
2022-12-29T17:19:26.254Z,0.8
2022-12-29T17:22:28.189Z,0.8
2022-12-29T17:25:30.152Z,0.9
2022-12-29T17:28:32.120Z,1.4
2022-12-29T17:31:34.139Z,1
2022-12-29T17:34:36.061Z,1.1
2022-12-29T17:37:38.023Z,1.1
2022-12-29T17:40:39.985Z,1.1
2022-12-29T17:43:41.955Z,1
2022-12-29T17:46:43.964Z,1.3
2022-12-29T17:49:46.072Z,1
2022-12-29T17:52:48.002Z,1
2022-12-29T17:55:49.960Z,1.4
2022-12-29T17:58:51.938Z,1.2
2022-12-29T18:01:53.924Z,1.2
2022-12-29T18:04:55.876Z,1.1
2022-12-29T18:07:57.834Z,1.1
2022-12-29T18:10:59.868Z,0.9
2022-12-29T18:14:01.840Z,1.1
2022-12-29T18:17:03.802Z,1.2
2022-12-29T18:20:05.770Z,1.2
2022-12-29T18:23:07.726Z,1.2
2022-12-29T18:26:09.679Z,1.3
2022-12-29T18:29:11.680Z,1.6
2022-12-29T18:32:13.629Z,1.3
2022-12-29T18:35:15.594Z,1.1
2022-12-29T18:38:17.735Z,1.2
2022-12-29T18:41:19.723Z,1.1
2022-12-29T18:44:21.705Z,1.1
2022-12-29T18:47:23.675Z,1.2
2022-12-29T18:50:25.708Z,1.4
2022-12-29T18:53:28.062Z,1.3
2022-12-29T18:56:30.038Z,1.4
2022-12-29T18:59:34.962Z,1.5
2022-12-29T19:02:39.497Z,1.4
2022-12-29T19:05:39.018Z,1.1
2022-12-29T19:08:41.252Z,1.3
2022-12-29T19:11:43.189Z,0.9
2022-12-29T19:14:45.164Z,1
2022-12-29T19:17:56.634Z,1.4
2022-12-29T19:20:49.104Z,1.4
2022-12-29T19:23:51.088Z,1.3
2022-12-29T19:26:53.048Z,1.7
2022-12-29T19:29:55.004Z,1.2
2022-12-29T19:32:56.968Z,1.5
2022-12-29T19:35:58.955Z,1.8
2022-12-29T19:39:00.927Z,1.3
2022-12-29T19:42:05.449Z,1.8
2022-12-29T19:45:04.850Z,1.6
2022-12-29T19:48:06.799Z,1.3
2022-12-29T19:51:08.936Z,1.9
2022-12-29T19:54:13.715Z,1.2
2022-12-29T19:57:15.680Z,1.5
2022-12-29T20:00:17.641Z,2
2022-12-29T20:03:19.988Z,1.9
2022-12-29T20:06:21.770Z,1.8
2022-12-29T20:09:26.521Z,1.6
2022-12-29T20:12:29.379Z,1.4
2022-12-29T20:15:30.588Z,1.5
2022-12-29T20:18:32.658Z,1.4
2022-12-29T20:21:34.498Z,1.3
2022-12-29T20:24:36.546Z,1.4
2022-12-29T20:27:38.525Z,1.6
2022-12-29T20:30:45.876Z,1.4
2022-12-29T20:33:45.287Z,1.4
2022-12-29T20:36:47.264Z,1
2022-12-29T20:39:49.362Z,2.2
2022-12-29T20:42:51.353Z,1.6
2022-12-29T20:45:53.334Z,1.7
2022-12-29T20:48:55.272Z,1.6
2022-12-29T20:52:06.038Z,1.8
2022-12-29T20:54:59.268Z,1.9
2022-12-29T20:58:24.526Z,1.7
2022-12-29T21:01:03.255Z,1.9
2022-12-29T21:04:05.169Z,1.8
2022-12-29T21:07:07.176Z,1.7
2022-12-29T21:10:09.123Z,1.6
2022-12-29T21:13:11.111Z,1.8
2022-12-29T21:16:13.112Z,1.5
2022-12-29T21:19:15.025Z,1.3
2022-12-29T21:22:16.985Z,1.6
2022-12-29T21:25:18.959Z,1.6
2022-12-29T21:28:20.935Z,1.7
2022-12-29T21:31:22.963Z,1.6
2022-12-29T21:34:24.846Z,2.2
2022-12-29T21:37:26.823Z,1.6
2022-12-29T21:40:28.802Z,1.6
2022-12-29T21:43:30.756Z,1.5
2022-12-29T21:46:32.774Z,1.3
2022-12-29T21:49:34.862Z,1.4
2022-12-29T21:52:36.716Z,1.4
2022-12-29T21:55:38.843Z,2
2022-12-29T21:58:40.629Z,1.4
2022-12-29T22:01:42.768Z,2.2
2022-12-29T22:04:44.574Z,1.8
2022-12-29T22:07:46.496Z,1.8
2022-12-29T22:10:48.480Z,2
2022-12-29T22:13:50.437Z,1.4
2022-12-29T22:16:52.445Z,1.6
2022-12-29T22:19:54.368Z,1.7
2022-12-29T22:22:56.333Z,1.9
2022-12-29T22:25:58.293Z,1.9
2022-12-29T22:29:00.288Z,2.4
2022-12-29T22:32:02.229Z,1.8
2022-12-29T22:35:07.942Z,2
2022-12-29T22:38:06.160Z,2.1
2022-12-29T22:41:08.111Z,2.1
2022-12-29T22:44:10.074Z,2.1
2022-12-29T22:47:12.046Z,1.7
2022-12-29T22:50:14.014Z,2
2022-12-29T22:53:15.983Z,1.7
2022-12-29T22:56:17.959Z,2.5
2022-12-29T22:59:19.929Z,2.4
2022-12-29T23:02:22.010Z,2
2022-12-29T23:05:23.838Z,1.7
2022-12-29T23:08:25.813Z,1.8
2022-12-29T23:11:27.771Z,1.9
2022-12-29T23:14:29.742Z,1.8
2022-12-29T23:17:31.719Z,1.7
2022-12-29T23:20:33.669Z,1.4
2022-12-29T23:23:35.649Z,1.7
2022-12-29T23:26:37.624Z,1.5
2022-12-29T23:29:39.575Z,2.3
2022-12-29T23:32:41.527Z,1.4
2022-12-29T23:35:43.496Z,2.1
2022-12-29T23:38:45.457Z,2.3
2022-12-29T23:41:47.425Z,2.1
2022-12-29T23:44:49.390Z,1.8
2022-12-29T23:47:51.350Z,2.1
2022-12-29T23:50:53.301Z,1.7
2022-12-29T23:53:55.307Z,1.6
2022-12-29T23:56:57.227Z,1.8
2022-12-29T23:59:59.185Z,1.6
